createdAt,value
2022-11-24T00:00:10.028Z,97.24
2022-11-24T00:01:10.011Z,97.44
2022-11-24T00:02:10.131Z,97.33
2022-11-24T00:03:10.144Z,97.44
2022-11-24T00:04:09.971Z,97.44
2022-11-24T00:05:10.109Z,97.65
2022-11-24T00:06:09.981Z,97.54
2022-11-24T00:07:10.008Z,97.44
2022-11-24T00:08:09.918Z,97.54
2022-11-24T00:09:09.906Z,97.29
2022-11-24T00:10:09.895Z,97.08
2022-11-24T00:11:09.884Z,96.88
2022-11-24T00:12:09.866Z,96.78
2022-11-24T00:13:09.853Z,96.53
2022-11-24T00:14:09.842Z,96.11
2022-11-24T00:15:09.837Z,95.91
2022-11-24T00:16:10.014Z,95.70
2022-11-24T00:17:09.843Z,95.40
2022-11-24T00:18:09.792Z,95.30
2022-11-24T00:20:09.764Z,95.50
2022-11-24T00:21:09.756Z,95.19
2022-11-24T00:22:09.761Z,95.40
2022-11-24T00:23:09.728Z,95.19
2022-11-24T00:24:09.719Z,95.19
2022-11-24T00:25:09.723Z,95.30
2022-11-24T00:26:09.690Z,95.44
2022-11-24T00:27:09.674Z,95.55
2022-11-24T00:28:09.661Z,95.64
2022-11-24T00:29:09.653Z,95.44
2022-11-24T00:30:09.648Z,95.34
2022-11-24T00:31:13.907Z,95.55
2022-11-24T00:32:09.607Z,95.44
2022-11-24T00:33:09.596Z,95.64
2022-11-24T00:34:09.584Z,95.89
2022-11-24T00:35:09.574Z,95.80
2022-11-24T00:36:09.556Z,95.89
2022-11-24T00:37:09.546Z,95.80
2022-11-24T00:38:09.555Z,96.61
2022-11-24T00:39:09.523Z,96.77
2022-11-24T00:40:09.505Z,96.92
2022-11-24T00:41:09.498Z,96.92
2022-11-24T00:42:09.479Z,96.77
2022-11-24T00:43:09.473Z,96.56
2022-11-24T00:44:09.458Z,96.87
2022-11-24T00:45:13.823Z,96.87
2022-11-24T00:46:09.657Z,96.87
2022-11-24T00:47:09.657Z,97.38
2022-11-24T00:48:09.401Z,97.69
2022-11-24T00:49:09.391Z,97.69
2022-11-24T00:50:09.375Z,97.79
2022-11-24T00:51:09.367Z,97.33
2022-11-24T00:52:09.352Z,97.03
2022-11-24T00:53:09.343Z,96.47
2022-11-24T00:54:09.365Z,96.16
2022-11-24T00:55:09.360Z,96.06
2022-11-24T00:56:09.298Z,95.95
2022-11-24T00:57:09.291Z,95.60
2022-11-24T00:58:09.278Z,95.19
2022-11-24T00:59:09.310Z,94.88
2022-11-24T01:00:09.273Z,94.78
2022-11-24T01:01:09.344Z,94.68
2022-11-24T01:02:09.322Z,94.58
2022-11-24T01:03:09.216Z,94.68
2022-11-24T01:04:09.194Z,94.58
2022-11-24T01:05:09.188Z,94.58
2022-11-24T01:06:09.171Z,94.47
2022-11-24T01:07:09.234Z,94.12
2022-11-24T01:08:09.143Z,94.01
2022-11-24T01:09:09.131Z,94.01
2022-11-24T01:10:09.143Z,93.81
2022-11-24T01:11:09.107Z,93.50
2022-11-24T01:12:09.101Z,93.46
2022-11-24T01:13:09.081Z,93.35
2022-11-24T01:14:09.067Z,93.40
2022-11-24T01:15:09.054Z,93.50
2022-11-24T01:16:09.130Z,93.50
2022-11-24T01:17:09.030Z,93.50
2022-11-24T01:18:09.015Z,93.46
2022-11-24T01:19:09.006Z,93.35
2022-11-24T01:21:10.430Z,93.15
2022-11-24T01:22:08.967Z,93.15
2022-11-24T01:23:08.953Z,93.30
2022-11-24T01:24:08.941Z,93.50
2022-11-24T01:25:08.930Z,93.60
2022-11-24T01:26:08.946Z,93.60
2022-11-24T01:27:08.904Z,93.81
2022-11-24T01:28:08.890Z,93.60
2022-11-24T01:29:08.877Z,93.92
2022-11-24T01:30:08.864Z,93.85
2022-11-24T01:31:08.897Z,94.16
2022-11-24T01:32:08.840Z,94.37
2022-11-24T01:33:08.827Z,94.01
2022-11-24T01:34:08.813Z,93.96
2022-11-24T01:35:08.800Z,94.06
2022-11-24T01:36:08.795Z,94.06
2022-11-24T01:37:08.775Z,94.16
2022-11-24T01:38:08.761Z,93.85
2022-11-24T01:39:08.749Z,93.96
2022-11-24T01:40:08.733Z,93.85
2022-11-24T01:41:08.723Z,94.06
2022-11-24T01:42:08.734Z,94.06
2022-11-24T01:43:08.697Z,94.26
2022-11-24T01:44:08.683Z,94.26
2022-11-24T01:45:08.676Z,94.47
2022-11-24T01:46:08.712Z,94.62
2022-11-24T01:47:08.646Z,94.58
2022-11-24T01:48:08.633Z,94.62
2022-11-24T01:49:08.621Z,94.58
2022-11-24T01:50:08.609Z,94.37
2022-11-24T01:51:08.595Z,94.26
2022-11-24T01:52:08.580Z,94.62
2022-11-24T01:53:08.568Z,94.51
2022-11-24T01:54:08.555Z,94.62
2022-11-24T01:55:08.545Z,94.83
2022-11-24T01:56:08.528Z,94.83
2022-11-24T01:57:08.517Z,94.92
2022-11-24T01:58:08.527Z,94.92
2022-11-24T01:59:08.495Z,95.03
2022-11-24T02:00:08.476Z,94.92
2022-11-24T02:01:08.508Z,94.72
2022-11-24T02:02:08.545Z,94.83
2022-11-24T02:03:08.441Z,94.92
2022-11-24T02:04:08.427Z,94.83
2022-11-24T02:05:08.414Z,94.72
2022-11-24T02:06:08.400Z,94.62
2022-11-24T02:07:08.483Z,94.68
2022-11-24T02:08:08.373Z,94.58
2022-11-24T02:09:08.362Z,94.68
2022-11-24T02:10:08.348Z,94.47
2022-11-24T02:11:08.336Z,94.37
2022-11-24T02:12:08.321Z,94.58
2022-11-24T02:13:08.314Z,94.58
2022-11-24T02:14:08.322Z,94.47
2022-11-24T02:15:08.284Z,95.03
2022-11-24T02:16:08.319Z,94.92
2022-11-24T02:17:08.260Z,95.34
2022-11-24T02:18:08.244Z,95.34
2022-11-24T02:19:08.233Z,95.34
2022-11-24T02:20:08.219Z,95.44
2022-11-24T02:22:08.191Z,95.64
2022-11-24T02:23:08.180Z,95.44
2022-11-24T02:24:08.169Z,95.64
2022-11-24T02:25:08.154Z,95.85
2022-11-24T02:26:08.142Z,95.85
2022-11-24T02:27:08.128Z,95.85
2022-11-24T02:28:08.114Z,95.85
2022-11-24T02:29:08.103Z,96.06
2022-11-24T02:30:08.116Z,95.95
2022-11-24T02:31:08.169Z,96.16
2022-11-24T02:32:08.063Z,96.06
2022-11-24T02:33:08.050Z,95.85
2022-11-24T02:34:08.036Z,95.50
2022-11-24T02:35:08.031Z,95.40
2022-11-24T02:36:08.014Z,95.30
2022-11-24T02:37:07.999Z,95.30
2022-11-24T02:38:07.986Z,95.30
2022-11-24T02:39:07.974Z,95.09
2022-11-24T02:40:07.972Z,95.09
2022-11-24T02:41:07.948Z,95.30
2022-11-24T02:42:07.934Z,95.19
2022-11-24T02:43:07.936Z,95.19
2022-11-24T02:44:07.908Z,95.09
2022-11-24T02:45:07.897Z,95.44
2022-11-24T02:46:07.938Z,95.55
2022-11-24T02:47:07.871Z,95.34
2022-11-24T02:48:07.862Z,95.64
2022-11-24T02:49:07.847Z,96.27
2022-11-24T02:50:07.830Z,96.27
2022-11-24T02:51:07.819Z,96.06
2022-11-24T02:52:07.807Z,95.95
2022-11-24T02:53:07.793Z,95.85
2022-11-24T02:54:07.784Z,95.75
2022-11-24T02:55:07.767Z,95.75
2022-11-24T02:56:07.752Z,95.64
2022-11-24T02:57:07.744Z,95.64
2022-11-24T02:58:07.726Z,95.55
2022-11-24T02:59:07.715Z,95.75
2022-11-24T03:00:07.708Z,95.40
2022-11-24T03:01:07.744Z,95.19
2022-11-24T03:02:07.701Z,95.09
2022-11-24T03:03:07.750Z,95.09
2022-11-24T03:04:07.648Z,95.13
2022-11-24T03:05:07.640Z,95.23
2022-11-24T03:06:07.626Z,95.23
2022-11-24T03:07:07.655Z,95.23
2022-11-24T03:08:07.598Z,94.98
2022-11-24T03:09:07.585Z,94.92
2022-11-24T03:10:07.573Z,94.92
2022-11-24T03:11:07.560Z,94.83
2022-11-24T03:12:07.546Z,94.72
2022-11-24T03:13:07.536Z,94.83
2022-11-24T03:14:07.521Z,94.83
2022-11-24T03:15:07.512Z,94.72
2022-11-24T03:16:07.533Z,95.08
2022-11-24T03:17:07.483Z,95.38
2022-11-24T03:18:07.495Z,95.48
2022-11-24T03:19:07.457Z,95.69
2022-11-24T03:20:07.444Z,95.59
2022-11-24T03:21:07.431Z,95.89
2022-11-24T03:23:07.409Z,95.80
2022-11-24T03:24:07.389Z,95.84
2022-11-24T03:25:07.380Z,96.14
2022-11-24T03:26:07.368Z,96.14
2022-11-24T03:27:07.354Z,96.14
2022-11-24T03:28:07.340Z,96.14
2022-11-24T03:29:07.328Z,96.45
2022-11-24T03:30:07.313Z,96.35
2022-11-24T03:31:07.398Z,95.84
2022-11-24T03:32:07.287Z,96.30
2022-11-24T03:33:07.356Z,96.60
2022-11-24T03:34:07.288Z,96.81
2022-11-24T03:35:07.250Z,97.32
2022-11-24T03:36:07.235Z,97.63
2022-11-24T03:37:07.224Z,97.84
2022-11-24T03:38:07.209Z,97.84
2022-11-24T03:39:07.199Z,97.74
2022-11-24T03:40:07.185Z,97.84
2022-11-24T03:41:07.175Z,97.79
2022-11-24T03:42:07.160Z,97.28
2022-11-24T03:43:07.149Z,96.61
2022-11-24T03:44:07.132Z,96.10
2022-11-24T03:46:07.178Z,95.89
2022-11-24T03:47:07.097Z,95.89
2022-11-24T03:48:07.084Z,95.80
2022-11-24T03:49:07.068Z,95.69
2022-11-24T03:50:07.086Z,95.69
2022-11-24T03:51:07.042Z,95.69
2022-11-24T03:52:08.328Z,95.89
2022-11-24T03:53:07.017Z,95.89
2022-11-24T03:54:07.004Z,95.89
2022-11-24T03:55:06.991Z,95.89
2022-11-24T03:56:06.981Z,95.89
2022-11-24T03:57:06.967Z,95.89
2022-11-24T03:58:06.955Z,95.69
2022-11-24T03:59:06.942Z,95.69
2022-11-24T04:00:06.941Z,95.38
2022-11-24T04:01:06.916Z,95.48
2022-11-24T04:02:06.933Z,95.28
2022-11-24T04:03:07.015Z,95.13
2022-11-24T04:04:06.876Z,94.83
2022-11-24T04:05:06.863Z,94.62
2022-11-24T04:06:06.877Z,94.51
2022-11-24T04:07:06.914Z,94.72
2022-11-24T04:08:06.826Z,95.08
2022-11-24T04:09:06.813Z,95.08
2022-11-24T04:10:06.805Z,95.28
2022-11-24T04:11:06.786Z,95.38
2022-11-24T04:12:06.775Z,95.38
2022-11-24T04:13:06.761Z,95.13
2022-11-24T04:14:13.234Z,95.03
2022-11-24T04:15:06.736Z,94.72
2022-11-24T04:16:06.812Z,94.26
2022-11-24T04:17:06.711Z,93.75
2022-11-24T04:18:06.698Z,93.40
2022-11-24T04:19:06.686Z,92.74
2022-11-24T04:20:06.680Z,92.23
2022-11-24T04:21:06.659Z,91.77
2022-11-24T04:22:06.671Z,91.46
2022-11-24T04:24:06.624Z,91.46
2022-11-24T04:25:06.608Z,91.57
2022-11-24T04:26:06.600Z,91.42
2022-11-24T04:27:06.588Z,91.22
2022-11-24T04:28:06.573Z,91.36
2022-11-24T04:29:06.560Z,91.42
2022-11-24T04:30:06.552Z,91.46
2022-11-24T04:31:06.579Z,91.32
2022-11-24T04:32:06.524Z,91.52
2022-11-24T04:33:06.509Z,91.73
2022-11-24T04:34:06.501Z,91.57
2022-11-24T04:35:06.485Z,91.83
2022-11-24T04:36:06.474Z,91.67
2022-11-24T04:37:06.474Z,91.77
2022-11-24T04:38:06.476Z,91.83
2022-11-24T04:39:24.421Z,92.04
2022-11-24T04:40:08.422Z,92.14
2022-11-24T04:41:06.407Z,91.94
2022-11-24T04:42:06.408Z,92.08
2022-11-24T04:43:06.393Z,92.18
2022-11-24T04:44:06.372Z,92.49
2022-11-24T04:45:06.357Z,92.18
2022-11-24T04:46:06.434Z,92.29
2022-11-24T04:47:06.330Z,92.29
2022-11-24T04:48:06.319Z,92.12
2022-11-24T04:49:06.304Z,92.54
2022-11-24T04:50:06.294Z,92.74
2022-11-24T04:51:06.284Z,92.95
2022-11-24T04:52:06.267Z,93.05
2022-11-24T04:53:06.256Z,93.56
2022-11-24T04:54:06.268Z,93.67
2022-11-24T04:55:06.230Z,93.77
2022-11-24T04:56:06.225Z,93.46
2022-11-24T04:57:06.206Z,93.77
2022-11-24T04:58:06.194Z,93.67
2022-11-24T04:59:08.461Z,93.67
2022-11-24T05:00:06.171Z,93.77
2022-11-24T05:01:06.176Z,93.77
2022-11-24T05:02:06.203Z,93.77
2022-11-24T05:03:06.129Z,93.67
2022-11-24T05:04:06.177Z,93.56
2022-11-24T05:05:06.106Z,93.67
2022-11-24T05:06:06.091Z,93.60
2022-11-24T05:07:06.107Z,93.81
2022-11-24T05:08:06.070Z,93.92
2022-11-24T05:09:06.052Z,94.22
2022-11-24T05:10:06.114Z,94.32
2022-11-24T05:11:06.025Z,94.32
2022-11-24T05:12:06.016Z,94.32
2022-11-24T05:13:05.999Z,94.63
2022-11-24T05:14:05.994Z,94.73
2022-11-24T05:15:05.977Z,94.63
2022-11-24T05:16:06.025Z,94.43
2022-11-24T05:17:05.953Z,94.32
2022-11-24T05:18:05.941Z,94.53
2022-11-24T05:19:05.926Z,94.22
2022-11-24T05:20:05.918Z,94.43
2022-11-24T05:21:05.901Z,94.22
2022-11-24T05:22:05.892Z,94.32
2022-11-24T05:23:05.876Z,94.22
2022-11-24T05:25:05.854Z,94.43
2022-11-24T05:26:05.863Z,94.53
2022-11-24T05:27:05.826Z,94.53
2022-11-24T05:28:05.815Z,94.84
2022-11-24T05:29:05.801Z,94.98
2022-11-24T05:30:05.790Z,95.15
2022-11-24T05:31:05.849Z,95.25
2022-11-24T05:32:05.763Z,95.15
2022-11-24T05:33:05.748Z,95.15
2022-11-24T05:34:05.738Z,95.05
2022-11-24T05:35:05.725Z,94.84
2022-11-24T05:36:05.712Z,94.94
2022-11-24T05:37:05.700Z,94.73
2022-11-24T05:38:05.710Z,94.63
2022-11-24T05:39:05.672Z,94.63
2022-11-24T05:40:05.660Z,94.84
2022-11-24T05:41:05.647Z,94.73
2022-11-24T05:42:05.663Z,94.63
2022-11-24T05:43:05.621Z,94.84
2022-11-24T05:44:05.610Z,94.32
2022-11-24T05:45:05.597Z,94.53
2022-11-24T05:46:05.588Z,94.63
2022-11-24T05:47:05.674Z,94.73
2022-11-24T05:48:05.563Z,94.84
2022-11-24T05:49:05.546Z,94.84
2022-11-24T05:50:05.535Z,94.73
2022-11-24T05:51:09.286Z,94.84
2022-11-24T05:52:05.510Z,94.84
2022-11-24T05:53:05.496Z,94.53
2022-11-24T05:54:05.486Z,94.84
2022-11-24T05:55:05.472Z,94.63
2022-11-24T05:56:05.459Z,94.73
2022-11-24T05:57:05.444Z,94.63
2022-11-24T05:58:05.464Z,94.63
2022-11-24T05:59:09.662Z,94.59
2022-11-24T06:00:05.411Z,94.59
2022-11-24T06:01:05.395Z,94.48
2022-11-24T06:02:05.522Z,94.39
2022-11-24T06:03:05.530Z,94.18
2022-11-24T06:04:05.359Z,94.28
2022-11-24T06:05:05.353Z,94.18
2022-11-24T06:06:05.334Z,94.28
2022-11-24T06:07:05.320Z,94.28
2022-11-24T06:08:05.314Z,94.07
2022-11-24T06:09:05.297Z,94.07
2022-11-24T06:10:05.283Z,94.18
2022-11-24T06:11:05.270Z,94.18
2022-11-24T06:12:05.263Z,94.39
2022-11-24T06:13:05.303Z,94.39
2022-11-24T06:14:09.775Z,94.39
2022-11-24T06:15:07.221Z,93.97
2022-11-24T06:16:05.260Z,94.18
2022-11-24T06:17:05.195Z,94.39
2022-11-24T06:18:05.184Z,94.32
2022-11-24T06:19:05.172Z,94.39
2022-11-24T06:20:05.160Z,94.22
2022-11-24T06:21:12.057Z,94.18
2022-11-24T06:22:07.134Z,94.28
2022-11-24T06:23:05.120Z,94.28
2022-11-24T06:24:05.109Z,94.28
2022-11-24T06:26:05.084Z,94.59
2022-11-24T06:27:05.073Z,94.39
2022-11-24T06:28:05.061Z,94.39
2022-11-24T06:29:05.046Z,94.48
2022-11-24T06:30:05.064Z,94.48
2022-11-24T06:31:05.021Z,94.48
2022-11-24T06:32:05.038Z,94.48
2022-11-24T06:33:04.996Z,94.39
2022-11-24T06:34:04.985Z,94.28
2022-11-24T06:35:04.970Z,94.28
2022-11-24T06:36:04.960Z,94.39
2022-11-24T06:37:04.945Z,94.39
2022-11-24T06:38:04.935Z,94.18
2022-11-24T06:40:04.909Z,94.39
2022-11-24T06:41:04.896Z,94.28
2022-11-24T06:42:04.885Z,94.07
2022-11-24T06:43:04.868Z,94.07
2022-11-24T06:44:04.858Z,93.97
2022-11-24T06:45:08.764Z,93.87
2022-11-24T06:46:04.949Z,94.39
2022-11-24T06:47:04.817Z,94.39
2022-11-24T06:48:04.807Z,94.48
2022-11-24T06:49:04.794Z,94.28
2022-11-24T06:50:04.782Z,94.59
2022-11-24T06:51:04.771Z,94.69
2022-11-24T06:52:04.756Z,94.79
2022-11-24T06:53:04.743Z,94.69
2022-11-24T06:54:04.733Z,94.79
2022-11-24T06:55:04.718Z,94.69
2022-11-24T06:56:04.707Z,94.79
2022-11-24T06:57:04.694Z,94.79
2022-11-24T06:58:04.682Z,94.69
2022-11-24T06:59:04.668Z,94.90
2022-11-24T07:00:04.656Z,94.90
2022-11-24T07:01:04.677Z,94.90
2022-11-24T07:02:04.658Z,94.79
2022-11-24T07:03:04.703Z,94.90
2022-11-24T07:04:04.607Z,94.79
2022-11-24T07:05:04.591Z,94.69
2022-11-24T07:06:04.581Z,94.59
2022-11-24T07:07:04.566Z,94.59
2022-11-24T07:08:04.555Z,94.59
2022-11-24T07:09:04.543Z,94.34
2022-11-24T07:10:04.532Z,94.54
2022-11-24T07:11:04.517Z,94.34
2022-11-24T07:12:04.508Z,94.54
2022-11-24T07:13:04.495Z,94.34
2022-11-24T07:14:04.482Z,94.14
2022-11-24T07:15:04.466Z,94.24
2022-11-24T07:16:04.480Z,94.14
2022-11-24T07:17:04.440Z,94.34
2022-11-24T07:18:04.458Z,94.44
2022-11-24T07:19:04.415Z,94.44
2022-11-24T07:20:04.404Z,94.65
2022-11-24T07:21:04.391Z,94.75
2022-11-24T07:22:04.380Z,94.75
2022-11-24T07:23:04.364Z,94.65
2022-11-24T07:24:04.352Z,94.85
2022-11-24T07:25:04.339Z,94.95
2022-11-24T07:27:04.312Z,94.85
2022-11-24T07:28:04.303Z,95.06
2022-11-24T07:29:04.288Z,95.16
2022-11-24T07:30:04.282Z,95.06
2022-11-24T07:31:04.262Z,95.26
2022-11-24T07:32:05.825Z,95.16
2022-11-24T07:33:04.236Z,95.06
2022-11-24T07:34:04.248Z,95.26
2022-11-24T07:35:04.217Z,94.75
2022-11-24T07:36:04.201Z,95.06
2022-11-24T07:37:04.197Z,95.06
2022-11-24T07:38:04.173Z,95.16
2022-11-24T07:39:04.159Z,95.26
2022-11-24T07:40:04.147Z,95.06
2022-11-24T07:41:04.133Z,95.26
2022-11-24T07:42:04.121Z,94.85
2022-11-24T07:43:04.106Z,94.95
2022-11-24T07:44:04.095Z,95.06
2022-11-24T07:45:04.079Z,95.06
2022-11-24T07:46:04.118Z,95.06
2022-11-24T07:47:04.054Z,95.16
2022-11-24T07:48:04.044Z,95.16
2022-11-24T07:49:04.029Z,95.16
2022-11-24T07:50:04.047Z,95.16
2022-11-24T07:51:04.003Z,95.37
2022-11-24T07:52:03.991Z,95.20
2022-11-24T07:53:03.985Z,95.26
2022-11-24T07:54:03.965Z,95.52
2022-11-24T07:55:03.951Z,95.26
2022-11-24T07:56:03.940Z,94.75
2022-11-24T07:57:03.927Z,94.65
2022-11-24T07:58:03.911Z,94.14
2022-11-24T07:59:03.897Z,94.44
2022-11-24T08:00:03.885Z,94.03
2022-11-24T08:01:03.868Z,94.24
2022-11-24T08:02:03.887Z,93.99
2022-11-24T08:03:03.844Z,94.09
2022-11-24T08:04:03.867Z,94.44
2022-11-24T08:05:03.816Z,94.85
2022-11-24T08:07:05.791Z,94.85
2022-11-24T08:08:03.775Z,94.85
2022-11-24T08:09:03.765Z,93.82
2022-11-24T08:10:03.773Z,93.72
2022-11-24T08:11:03.739Z,93.58
2022-11-24T08:12:03.724Z,92.76
2022-11-24T08:13:03.710Z,92.04
2022-11-24T08:14:03.696Z,91.58
2022-11-24T08:15:09.504Z,89.92
2022-11-24T08:16:03.670Z,86.97
2022-11-24T08:17:03.788Z,86.26
2022-11-24T08:18:03.643Z,85.80
2022-11-24T08:19:03.633Z,83.58
2022-11-24T08:20:03.618Z,81.01
2022-11-24T08:21:03.605Z,79.51
2022-11-24T08:22:03.615Z,78.29
2022-11-24T08:23:03.580Z,77.40
2022-11-24T08:24:03.566Z,76.14
2022-11-24T08:25:03.555Z,76.34
2022-11-24T08:26:03.540Z,74.62
2022-11-24T08:28:03.532Z,73.93
2022-11-24T08:29:03.508Z,74.65
2022-11-24T08:30:03.487Z,74.82
2022-11-24T08:31:03.477Z,75.77
2022-11-24T08:32:03.526Z,77.30
2022-11-24T08:33:03.450Z,79.46
2022-11-24T08:34:03.435Z,81.13
2022-11-24T08:35:18.407Z,82.64
2022-11-24T08:36:05.413Z,84.58
2022-11-24T08:37:03.403Z,85.95
2022-11-24T08:38:04.895Z,86.71
2022-11-24T08:39:03.373Z,87.67
2022-11-24T08:40:03.361Z,88.49
2022-11-24T08:41:03.347Z,88.80
2022-11-24T08:42:03.331Z,89.10
2022-11-24T08:43:03.320Z,89.14
2022-11-24T08:44:03.306Z,89.41
2022-11-24T08:45:19.303Z,90.06
2022-11-24T08:46:03.345Z,90.47
2022-11-24T08:47:03.272Z,89.86
2022-11-24T08:48:03.264Z,89.55
2022-11-24T08:49:03.247Z,89.96
2022-11-24T08:50:03.226Z,89.76
2022-11-24T08:51:03.217Z,90.06
2022-11-24T08:52:03.203Z,90.17
2022-11-24T08:53:03.194Z,90.58
2022-11-24T08:54:03.203Z,90.78
2022-11-24T08:55:03.165Z,91.34
2022-11-24T08:56:03.153Z,92.16
2022-11-24T08:57:03.140Z,92.57
2022-11-24T08:58:03.126Z,92.26
2022-11-24T08:59:03.200Z,92.36
2022-11-24T09:00:03.099Z,92.16
2022-11-24T09:01:03.132Z,92.67
2022-11-24T09:02:03.195Z,92.77
2022-11-24T09:03:03.069Z,93.08
2022-11-24T09:04:03.095Z,92.98
2022-11-24T09:05:03.035Z,92.36
2022-11-24T09:06:03.033Z,92.36
2022-11-24T09:07:03.012Z,92.01
2022-11-24T09:08:02.997Z,91.85
2022-11-24T09:09:02.987Z,92.42
2022-11-24T09:10:02.992Z,92.63
2022-11-24T09:11:02.960Z,92.83
2022-11-24T09:12:02.943Z,91.81
2022-11-24T09:13:02.935Z,91.71
2022-11-24T09:14:02.921Z,90.78
2022-11-24T09:15:02.910Z,90.47
2022-11-24T09:16:02.899Z,91.46
2022-11-24T09:17:02.947Z,91.30
2022-11-24T09:18:02.867Z,91.19
2022-11-24T09:19:02.856Z,91.81
2022-11-24T09:20:02.842Z,91.95
2022-11-24T09:21:02.831Z,92.36
2022-11-24T09:22:02.815Z,93.38
2022-11-24T09:23:02.809Z,93.38
2022-11-24T09:24:02.787Z,93.18
2022-11-24T09:25:02.783Z,93.38
2022-11-24T09:26:02.787Z,93.80
2022-11-24T09:27:02.751Z,93.29
2022-11-24T09:29:02.727Z,92.83
2022-11-24T09:30:02.710Z,92.73
2022-11-24T09:31:02.787Z,92.32
2022-11-24T09:32:06.751Z,92.73
2022-11-24T09:33:02.672Z,92.52
2022-11-24T09:34:02.660Z,91.66
2022-11-24T09:35:02.649Z,91.25
2022-11-24T09:36:02.632Z,91.25
2022-11-24T09:37:02.619Z,91.21
2022-11-24T09:38:02.608Z,90.70
2022-11-24T09:39:02.595Z,90.25
2022-11-24T09:40:02.580Z,89.73
2022-11-24T09:41:02.577Z,88.81
2022-11-24T09:42:02.576Z,89.53
2022-11-24T09:43:02.543Z,88.51
2022-11-24T09:44:02.528Z,88.45
2022-11-24T09:45:02.519Z,87.83
2022-11-24T09:46:06.485Z,88.20
2022-11-24T09:47:02.530Z,88.10
2022-11-24T09:48:02.475Z,86.77
2022-11-24T09:49:02.466Z,87.38
2022-11-24T09:50:02.450Z,86.93
2022-11-24T09:51:02.441Z,86.46
2022-11-24T09:52:02.425Z,86.32
2022-11-24T09:53:02.413Z,86.52
2022-11-24T09:54:02.400Z,86.01
2022-11-24T09:55:02.400Z,86.42
2022-11-24T09:56:02.373Z,86.21
2022-11-24T09:57:02.363Z,84.91
2022-11-24T09:58:02.377Z,83.42
2022-11-24T09:59:02.338Z,84.09
2022-11-24T10:00:02.321Z,84.81
2022-11-24T10:01:02.370Z,83.48
2022-11-24T10:02:02.507Z,82.72
2022-11-24T10:03:02.284Z,82.01
2022-11-24T10:04:06.377Z,82.11
2022-11-24T10:05:02.334Z,81.50
2022-11-24T10:06:02.245Z,81.15
2022-11-24T10:07:02.241Z,80.23
2022-11-24T10:08:02.240Z,77.78
2022-11-24T10:09:02.209Z,77.54
2022-11-24T10:10:02.192Z,76.08
2022-11-24T10:11:02.182Z,74.71
2022-11-24T10:12:02.171Z,75.19
2022-11-24T10:13:02.157Z,73.80
2022-11-24T10:14:02.166Z,73.36
2022-11-24T10:16:02.189Z,74.85
2022-11-24T10:17:02.120Z,75.87
2022-11-24T10:18:02.093Z,75.02
2022-11-24T10:19:02.082Z,75.50
2022-11-24T10:20:02.066Z,73.69
2022-11-24T10:21:02.055Z,73.80
2022-11-24T10:22:02.041Z,74.10
2022-11-24T10:23:02.033Z,73.93
2022-11-24T10:24:02.017Z,72.54
2022-11-24T10:25:02.007Z,72.00
2022-11-24T10:26:01.991Z,71.50
2022-11-24T10:27:01.990Z,70.61
2022-11-24T10:28:01.977Z,71.22
2022-11-24T10:30:01.973Z,72.51
2022-11-24T10:31:02.009Z,71.83
2022-11-24T10:32:01.918Z,72.14
2022-11-24T10:33:01.906Z,71.94
2022-11-24T10:35:01.883Z,72.85
2022-11-24T10:36:01.869Z,72.21
2022-11-24T10:37:01.859Z,71.36
2022-11-24T10:38:01.843Z,71.05
2022-11-24T10:39:01.832Z,71.33
2022-11-24T10:40:01.819Z,69.90
2022-11-24T10:41:01.808Z,68.45
2022-11-24T10:42:01.794Z,67.54
2022-11-24T10:43:01.783Z,66.93
2022-11-24T10:44:01.771Z,67.54
2022-11-24T10:45:01.758Z,68.32
2022-11-24T10:46:01.867Z,68.01
2022-11-24T10:47:01.733Z,68.01
2022-11-24T10:48:01.720Z,66.96
2022-11-24T10:49:01.713Z,67.57
2022-11-24T10:50:01.701Z,69.12
2022-11-24T10:51:01.687Z,69.53
2022-11-24T10:52:01.684Z,70.41
2022-11-24T10:53:01.659Z,72.92
2022-11-24T10:54:01.644Z,74.01
2022-11-24T10:55:01.634Z,75.87
2022-11-24T10:56:01.630Z,76.80
2022-11-24T10:57:01.609Z,74.51
2022-11-24T10:58:01.596Z,73.60
2022-11-24T10:59:01.583Z,74.27
2022-11-24T11:00:01.570Z,75.91
2022-11-24T11:01:01.656Z,75.84
2022-11-24T11:02:01.676Z,76.66
2022-11-24T11:03:01.589Z,76.39
2022-11-24T11:04:01.556Z,76.32
2022-11-24T11:05:01.505Z,76.87
2022-11-24T11:06:01.491Z,77.58
2022-11-24T11:07:01.482Z,78.50
2022-11-24T11:08:05.457Z,77.78
2022-11-24T11:09:01.455Z,77.75
2022-11-24T11:10:01.440Z,76.97
2022-11-24T11:11:01.429Z,78.19
2022-11-24T11:12:10.023Z,77.28
2022-11-24T11:13:03.413Z,76.53
2022-11-24T11:14:04.332Z,76.83
2022-11-24T11:15:01.377Z,76.32
2022-11-24T11:16:01.419Z,76.83
2022-11-24T11:17:01.350Z,76.69
2022-11-24T11:18:01.541Z,76.32
2022-11-24T11:19:01.324Z,74.48
2022-11-24T11:20:02.612Z,74.38
2022-11-24T11:21:01.298Z,74.21
2022-11-24T11:22:01.284Z,74.52
2022-11-24T11:23:01.273Z,74.11
2022-11-24T11:24:01.262Z,74.01
2022-11-24T11:25:01.248Z,75.13
2022-11-24T11:26:01.244Z,75.13
2022-11-24T11:27:01.219Z,74.42
2022-11-24T11:28:07.185Z,74.62
2022-11-24T11:31:19.271Z,75.75
2022-11-24T11:34:03.314Z,75.10
2022-11-24T11:35:01.120Z,75.40
2022-11-24T11:36:01.109Z,74.11
2022-11-24T11:37:01.090Z,74.93
2022-11-24T11:38:01.075Z,74.93
2022-11-24T11:39:01.068Z,74.72
2022-11-24T11:40:01.050Z,74.62
2022-11-24T11:41:01.039Z,74.82
2022-11-24T11:42:01.025Z,74.93
2022-11-24T11:43:02.738Z,74.72
2022-11-24T11:44:01.001Z,74.65
2022-11-24T11:45:00.986Z,75.68
2022-11-24T11:46:01.185Z,75.27
2022-11-24T11:47:01.012Z,75.57
2022-11-24T11:48:00.947Z,75.37
2022-11-24T11:49:00.935Z,74.76
2022-11-24T11:50:00.948Z,75.06
2022-11-24T11:51:22.262Z,74.86
2022-11-24T11:52:02.894Z,74.96
2022-11-24T11:53:00.883Z,74.45
2022-11-24T11:54:00.924Z,74.96
2022-11-24T11:55:00.858Z,75.17
2022-11-24T11:56:00.842Z,75.37
2022-11-24T11:57:00.832Z,75.17
2022-11-24T11:58:00.817Z,75.00
2022-11-24T11:59:00.824Z,73.26
2022-11-24T12:00:00.791Z,69.56
2022-11-24T12:01:00.785Z,67.26
2022-11-24T12:02:00.766Z,67.19
2022-11-24T12:03:00.929Z,67.80
2022-11-24T12:04:00.964Z,67.93
2022-11-24T12:05:00.727Z,69.32
2022-11-24T12:06:00.742Z,70.07
2022-11-24T12:07:00.705Z,70.68
2022-11-24T12:08:06.416Z,70.61
2022-11-24T12:09:19.097Z,71.73
2022-11-24T12:10:02.661Z,71.93
2022-11-24T12:11:00.651Z,70.47
2022-11-24T12:12:00.634Z,69.66
2022-11-24T12:13:00.625Z,70.47
2022-11-24T12:14:00.610Z,70.68
2022-11-24T12:15:03.457Z,70.88
2022-11-24T12:16:00.669Z,71.36
2022-11-24T12:17:00.573Z,71.77
2022-11-24T12:18:00.557Z,72.00
2022-11-24T12:19:00.547Z,70.37
2022-11-24T12:20:00.533Z,69.66
2022-11-24T12:21:00.519Z,69.15
2022-11-24T12:22:00.532Z,65.67
2022-11-24T12:23:00.494Z,64.19
2022-11-24T12:24:00.484Z,62.89
2022-11-24T12:25:00.591Z,60.93
2022-11-24T12:26:00.455Z,63.31
2022-11-24T12:28:00.430Z,66.18
2022-11-24T12:29:00.423Z,67.35
2022-11-24T12:30:00.406Z,67.87
2022-11-24T12:32:00.378Z,64.97
2022-11-24T12:33:00.394Z,63.12
2022-11-24T12:34:01.485Z,61.16
2022-11-24T12:35:00.343Z,61.13
2022-11-24T12:36:00.328Z,61.57
2022-11-24T12:37:00.323Z,60.93
2022-11-24T12:38:00.326Z,60.63
2022-11-24T12:39:00.288Z,60.22
2022-11-24T12:40:00.278Z,62.06
2022-11-24T12:41:33.809Z,65.63
2022-11-24T12:42:02.255Z,65.47
2022-11-24T12:43:00.243Z,63.41
2022-11-24T12:44:00.227Z,62.03
2022-11-24T12:45:00.230Z,60.79
2022-11-24T12:46:00.226Z,61.60
2022-11-24T12:47:00.366Z,62.50
2022-11-24T12:48:00.174Z,63.69
2022-11-24T12:49:00.162Z,61.66
2022-11-24T12:50:00.182Z,62.06
2022-11-24T12:51:00.135Z,61.43
2022-11-24T12:52:00.130Z,61.43
2022-11-24T12:53:00.111Z,60.18
2022-11-24T12:54:00.142Z,60.18
2022-11-24T12:55:00.089Z,61.43
2022-11-24T12:56:00.088Z,62.25
2022-11-24T12:57:00.072Z,65.09
2022-11-24T12:58:00.051Z,65.63
2022-11-24T12:59:00.036Z,63.48
2022-11-24T13:00:00.028Z,61.60
2022-11-24T13:01:00.010Z,60.35
2022-11-24T13:02:00.117Z,60.02
2022-11-24T13:03:00.137Z,59.89
2022-11-24T13:03:59.976Z,58.55
2022-11-24T13:04:59.960Z,58.35
2022-11-24T13:05:59.949Z,58.05
2022-11-24T13:06:59.943Z,57.59
2022-11-24T13:07:59.926Z,57.72
2022-11-24T13:08:59.913Z,57.61
2022-11-24T13:09:59.924Z,57.51
2022-11-24T13:10:59.886Z,58.61
2022-11-24T13:12:03.562Z,58.91
2022-11-24T13:12:59.865Z,58.81
2022-11-24T13:13:59.851Z,58.50